sensor_id;sensor_type;location;lat;lon;timestamp;P1;durP1;ratioP1;P2;durP2;ratioP2
15616;SDS011;7908;51.688;7.130;2022-08-01T00:00:16;32.20;;;22.38;;
15616;SDS011;7908;51.688;7.130;2022-08-01T00:02:46;25.35;;;20.20;;
15616;SDS011;7908;51.688;7.130;2022-08-01T00:05:25;29.70;;;23.05;;
15616;SDS011;7908;51.688;7.130;2022-08-01T00:07:54;28.08;;;22.75;;
15616;SDS011;7908;51.688;7.130;2022-08-01T00:10:26;31.13;;;22.67;;
15616;SDS011;7908;51.688;7.130;2022-08-01T00:12:58;31.30;;;24.47;;
15616;SDS011;7908;51.688;7.130;2022-08-01T00:15:32;31.23;;;23.73;;
15616;SDS011;7908;51.688;7.130;2022-08-01T00:18:03;37.33;;;25.63;;
15616;SDS011;7908;51.688;7.130;2022-08-01T00:20:33;31.63;;;24.40;;
15616;SDS011;7908;51.688;7.130;2022-08-01T00:23:02;40.63;;;27.63;;
15616;SDS011;7908;51.688;7.130;2022-08-01T00:25:35;47.30;;;31.03;;
15616;SDS011;7908;51.688;7.130;2022-08-01T00:28:04;35.67;;;27.60;;
15616;SDS011;7908;51.688;7.130;2022-08-01T00:30:37;39.03;;;27.03;;
15616;SDS011;7908;51.688;7.130;2022-08-01T00:33:08;42.17;;;29.13;;
15616;SDS011;7908;51.688;7.130;2022-08-01T00:35:39;35.00;;;26.23;;
15616;SDS011;7908;51.688;7.130;2022-08-01T00:38:12;44.90;;;29.00;;
15616;SDS011;7908;51.688;7.130;2022-08-01T00:40:42;41.70;;;28.90;;
15616;SDS011;7908;51.688;7.130;2022-08-01T00:43:17;47.37;;;29.70;;
15616;SDS011;7908;51.688;7.130;2022-08-01T00:45:52;45.73;;;28.53;;
15616;SDS011;7908;51.688;7.130;2022-08-01T00:48:22;50.80;;;31.63;;
15616;SDS011;7908;51.688;7.130;2022-08-01T00:50:54;39.10;;;27.47;;
15616;SDS011;7908;51.688;7.130;2022-08-01T00:53:28;46.93;;;29.60;;
15616;SDS011;7908;51.688;7.130;2022-08-01T00:56:27;42.83;;;28.13;;
15616;SDS011;7908;51.688;7.130;2022-08-01T00:58:58;42.97;;;28.63;;
15616;SDS011;7908;51.688;7.130;2022-08-01T01:01:31;42.00;;;28.27;;
15616;SDS011;7908;51.688;7.130;2022-08-01T01:04:07;43.33;;;28.17;;
15616;SDS011;7908;51.688;7.130;2022-08-01T01:06:41;47.13;;;29.27;;
15616;SDS011;7908;51.688;7.130;2022-08-01T01:09:17;49.40;;;30.33;;
15616;SDS011;7908;51.688;7.130;2022-08-01T01:12:02;40.47;;;28.87;;
15616;SDS011;7908;51.688;7.130;2022-08-01T01:14:49;60.23;;;32.63;;
15616;SDS011;7908;51.688;7.130;2022-08-01T01:17:27;49.57;;;31.60;;
15616;SDS011;7908;51.688;7.130;2022-08-01T01:20:17;51.00;;;33.50;;
15616;SDS011;7908;51.688;7.130;2022-08-01T01:22:59;56.07;;;35.20;;
15616;SDS011;7908;51.688;7.130;2022-08-01T01:26:04;60.43;;;37.70;;
15616;SDS011;7908;51.688;7.130;2022-08-01T01:29:00;50.47;;;36.33;;
15616;SDS011;7908;51.688;7.130;2022-08-01T01:31:35;63.33;;;36.23;;
15616;SDS011;7908;51.688;7.130;2022-08-01T01:34:09;53.00;;;33.77;;
15616;SDS011;7908;51.688;7.130;2022-08-01T01:36:44;52.10;;;33.50;;
15616;SDS011;7908;51.688;7.130;2022-08-01T01:39:16;55.73;;;33.77;;
15616;SDS011;7908;51.688;7.130;2022-08-01T01:41:46;51.87;;;34.03;;
15616;SDS011;7908;51.688;7.130;2022-08-01T01:44:20;49.00;;;32.83;;
15616;SDS011;7908;51.688;7.130;2022-08-01T01:46:55;45.77;;;31.53;;
15616;SDS011;7908;51.688;7.130;2022-08-01T01:49:26;44.20;;;31.10;;
15616;SDS011;7908;51.688;7.130;2022-08-01T01:51:57;58.00;;;33.47;;
15616;SDS011;7908;51.688;7.130;2022-08-01T01:54:31;50.00;;;31.50;;
15616;SDS011;7908;51.688;7.130;2022-08-01T01:57:05;40.13;;;29.23;;
15616;SDS011;7908;51.688;7.130;2022-08-01T01:59:38;45.57;;;30.63;;
15616;SDS011;7908;51.688;7.130;2022-08-01T02:02:10;48.33;;;30.53;;
15616;SDS011;7908;51.688;7.130;2022-08-01T02:04:43;43.60;;;28.80;;
15616;SDS011;7908;51.688;7.130;2022-08-01T02:07:17;40.73;;;26.93;;
15616;SDS011;7908;51.688;7.130;2022-08-01T02:09:51;40.37;;;28.03;;
15616;SDS011;7908;51.688;7.130;2022-08-01T02:12:23;40.63;;;27.67;;
15616;SDS011;7908;51.688;7.130;2022-08-01T02:14:57;38.23;;;26.57;;
15616;SDS011;7908;51.688;7.130;2022-08-01T02:17:27;40.00;;;26.73;;
15616;SDS011;7908;51.688;7.130;2022-08-01T02:20:00;39.63;;;26.30;;
15616;SDS011;7908;51.688;7.130;2022-08-01T02:22:30;36.70;;;26.40;;
15616;SDS011;7908;51.688;7.130;2022-08-01T02:25:08;37.17;;;25.53;;
15616;SDS011;7908;51.688;7.130;2022-08-01T02:27:44;33.07;;;24.67;;
15616;SDS011;7908;51.688;7.130;2022-08-01T02:30:21;35.47;;;24.57;;
15616;SDS011;7908;51.688;7.130;2022-08-01T02:33:02;38.47;;;24.90;;
15616;SDS011;7908;51.688;7.130;2022-08-01T02:35:41;28.90;;;20.97;;
15616;SDS011;7908;51.688;7.130;2022-08-01T02:38:35;25.13;;;18.70;;
15616;SDS011;7908;51.688;7.130;2022-08-01T02:41:09;26.37;;;18.30;;
15616;SDS011;7908;51.688;7.130;2022-08-01T02:43:45;24.37;;;17.00;;
15616;SDS011;7908;51.688;7.130;2022-08-01T02:46:22;25.43;;;16.93;;
15616;SDS011;7908;51.688;7.130;2022-08-01T02:48:55;20.90;;;16.17;;
15616;SDS011;7908;51.688;7.130;2022-08-01T02:51:29;22.73;;;16.20;;
15616;SDS011;7908;51.688;7.130;2022-08-01T02:53:59;21.77;;;14.80;;
15616;SDS011;7908;51.688;7.130;2022-08-01T02:56:32;21.43;;;15.77;;
15616;SDS011;7908;51.688;7.130;2022-08-01T02:59:09;22.07;;;16.47;;
15616;SDS011;7908;51.688;7.130;2022-08-01T03:01:45;25.97;;;17.40;;
15616;SDS011;7908;51.688;7.130;2022-08-01T03:04:21;23.57;;;17.60;;
15616;SDS011;7908;51.688;7.130;2022-08-01T03:06:57;25.67;;;17.60;;
15616;SDS011;7908;51.688;7.130;2022-08-01T03:09:30;21.80;;;16.80;;
15616;SDS011;7908;51.688;7.130;2022-08-01T03:12:05;26.40;;;18.10;;
15616;SDS011;7908;51.688;7.130;2022-08-01T03:14:41;30.90;;;19.70;;
15616;SDS011;7908;51.688;7.130;2022-08-01T03:17:14;29.40;;;19.63;;
15616;SDS011;7908;51.688;7.130;2022-08-01T03:19:45;31.17;;;19.57;;
15616;SDS011;7908;51.688;7.130;2022-08-01T03:22:17;33.17;;;20.13;;
15616;SDS011;7908;51.688;7.130;2022-08-01T03:24:51;32.70;;;21.33;;
15616;SDS011;7908;51.688;7.130;2022-08-01T03:27:24;32.07;;;22.30;;
15616;SDS011;7908;51.688;7.130;2022-08-01T03:29:54;40.73;;;23.97;;
15616;SDS011;7908;51.688;7.130;2022-08-01T03:32:26;34.47;;;22.13;;
15616;SDS011;7908;51.688;7.130;2022-08-01T03:34:58;33.30;;;20.50;;
15616;SDS011;7908;51.688;7.130;2022-08-01T03:37:32;36.80;;;22.17;;
15616;SDS011;7908;51.688;7.130;2022-08-01T03:40:30;30.27;;;20.77;;
15616;SDS011;7908;51.688;7.130;2022-08-01T03:43:05;32.37;;;21.33;;
15616;SDS011;7908;51.688;7.130;2022-08-01T03:45:45;36.47;;;21.53;;
15616;SDS011;7908;51.688;7.130;2022-08-01T03:48:22;36.20;;;21.23;;
15616;SDS011;7908;51.688;7.130;2022-08-01T03:51:01;30.30;;;19.87;;
15616;SDS011;7908;51.688;7.130;2022-08-01T03:53:34;34.10;;;20.30;;
15616;SDS011;7908;51.688;7.130;2022-08-01T03:56:08;37.37;;;21.63;;
15616;SDS011;7908;51.688;7.130;2022-08-01T03:58:39;33.23;;;20.50;;
15616;SDS011;7908;51.688;7.130;2022-08-01T04:01:15;28.00;;;18.27;;
15616;SDS011;7908;51.688;7.130;2022-08-01T04:03:47;26.27;;;18.10;;
15616;SDS011;7908;51.688;7.130;2022-08-01T04:06:17;28.20;;;18.83;;
15616;SDS011;7908;51.688;7.130;2022-08-01T04:08:47;32.67;;;20.13;;
15616;SDS011;7908;51.688;7.130;2022-08-01T04:11:25;30.77;;;20.03;;
15616;SDS011;7908;51.688;7.130;2022-08-01T04:13:55;28.13;;;18.23;;
15616;SDS011;7908;51.688;7.130;2022-08-01T04:16:34;25.43;;;17.27;;
15616;SDS011;7908;51.688;7.130;2022-08-01T04:19:08;32.20;;;19.77;;
15616;SDS011;7908;51.688;7.130;2022-08-01T04:21:38;28.20;;;18.60;;
15616;SDS011;7908;51.688;7.130;2022-08-01T04:24:16;24.70;;;17.23;;
15616;SDS011;7908;51.688;7.130;2022-08-01T04:26:50;31.33;;;19.60;;
15616;SDS011;7908;51.688;7.130;2022-08-01T04:29:20;28.50;;;18.37;;
15616;SDS011;7908;51.688;7.130;2022-08-01T04:31:54;25.77;;;18.23;;
15616;SDS011;7908;51.688;7.130;2022-08-01T04:34:27;29.20;;;19.73;;
15616;SDS011;7908;51.688;7.130;2022-08-01T04:36:59;25.53;;;18.37;;
15616;SDS011;7908;51.688;7.130;2022-08-01T04:39:34;29.40;;;18.03;;
15616;SDS011;7908;51.688;7.130;2022-08-01T04:42:16;25.27;;;17.40;;
15616;SDS011;7908;51.688;7.130;2022-08-01T04:44:59;26.90;;;18.70;;
15616;SDS011;7908;51.688;7.130;2022-08-01T04:47:30;28.03;;;18.53;;
15616;SDS011;7908;51.688;7.130;2022-08-01T04:50:01;25.10;;;16.93;;
15616;SDS011;7908;51.688;7.130;2022-08-01T04:52:35;26.17;;;17.87;;
15616;SDS011;7908;51.688;7.130;2022-08-01T04:55:08;23.83;;;16.83;;
15616;SDS011;7908;51.688;7.130;2022-08-01T04:57:38;22.13;;;15.40;;
15616;SDS011;7908;51.688;7.130;2022-08-01T05:00:14;19.80;;;15.17;;
15616;SDS011;7908;51.688;7.130;2022-08-01T05:02:45;19.83;;;15.03;;
15616;SDS011;7908;51.688;7.130;2022-08-01T05:05:18;19.13;;;14.90;;
15616;SDS011;7908;51.688;7.130;2022-08-01T05:07:49;18.30;;;13.80;;
15616;SDS011;7908;51.688;7.130;2022-08-01T05:10:23;22.67;;;15.80;;
15616;SDS011;7908;51.688;7.130;2022-08-01T05:12:55;19.20;;;13.77;;
15616;SDS011;7908;51.688;7.130;2022-08-01T05:15:31;20.27;;;15.20;;
15616;SDS011;7908;51.688;7.130;2022-08-01T05:18:04;17.70;;;13.40;;
15616;SDS011;7908;51.688;7.130;2022-08-01T05:20:37;18.80;;;15.27;;
15616;SDS011;7908;51.688;7.130;2022-08-01T05:23:06;19.30;;;14.93;;
15616;SDS011;7908;51.688;7.130;2022-08-01T05:25:56;17.33;;;13.50;;
15616;SDS011;7908;51.688;7.130;2022-08-01T05:28:27;18.83;;;15.13;;
15616;SDS011;7908;51.688;7.130;2022-08-01T05:30:56;21.57;;;16.37;;
15616;SDS011;7908;51.688;7.130;2022-08-01T05:33:26;19.37;;;15.33;;
15616;SDS011;7908;51.688;7.130;2022-08-01T05:36:04;24.50;;;15.80;;
15616;SDS011;7908;51.688;7.130;2022-08-01T05:38:35;21.80;;;16.93;;
15616;SDS011;7908;51.688;7.130;2022-08-01T05:41:04;22.80;;;16.20;;
15616;SDS011;7908;51.688;7.130;2022-08-01T05:43:34;21.60;;;14.60;;
15616;SDS011;7908;51.688;7.130;2022-08-01T05:46:04;16.77;;;14.23;;
15616;SDS011;7908;51.688;7.130;2022-08-01T05:48:34;14.77;;;12.57;;
15616;SDS011;7908;51.688;7.130;2022-08-01T05:51:07;14.53;;;12.87;;
15616;SDS011;7908;51.688;7.130;2022-08-01T05:53:37;16.90;;;12.10;;
15616;SDS011;7908;51.688;7.130;2022-08-01T05:56:09;9.40;;;8.37;;
15616;SDS011;7908;51.688;7.130;2022-08-01T05:58:38;10.37;;;9.00;;
15616;SDS011;7908;51.688;7.130;2022-08-01T06:01:07;12.90;;;9.40;;
15616;SDS011;7908;51.688;7.130;2022-08-01T06:03:37;12.07;;;10.10;;
15616;SDS011;7908;51.688;7.130;2022-08-01T06:06:11;11.93;;;10.40;;
15616;SDS011;7908;51.688;7.130;2022-08-01T06:08:50;12.53;;;9.20;;
15616;SDS011;7908;51.688;7.130;2022-08-01T06:11:23;9.43;;;8.40;;
15616;SDS011;7908;51.688;7.130;2022-08-01T06:14:06;10.33;;;9.27;;
15616;SDS011;7908;51.688;7.130;2022-08-01T06:16:35;9.13;;;8.07;;
15616;SDS011;7908;51.688;7.130;2022-08-01T06:19:07;8.27;;;7.23;;
15616;SDS011;7908;51.688;7.130;2022-08-01T06:21:41;8.80;;;7.13;;
15616;SDS011;7908;51.688;7.130;2022-08-01T06:24:11;9.20;;;7.20;;
15616;SDS011;7908;51.688;7.130;2022-08-01T06:26:40;8.07;;;7.20;;
15616;SDS011;7908;51.688;7.130;2022-08-01T06:29:11;7.78;;;6.00;;
15616;SDS011;7908;51.688;7.130;2022-08-01T06:31:41;6.47;;;5.83;;
15616;SDS011;7908;51.688;7.130;2022-08-01T06:34:14;8.13;;;5.73;;
15616;SDS011;7908;51.688;7.130;2022-08-01T06:36:45;7.13;;;6.32;;
15616;SDS011;7908;51.688;7.130;2022-08-01T06:39:14;8.00;;;7.20;;
15616;SDS011;7908;51.688;7.130;2022-08-01T06:41:57;10.00;;;7.88;;
15616;SDS011;7908;51.688;7.130;2022-08-01T06:44:26;9.48;;;8.45;;
15616;SDS011;7908;51.688;7.130;2022-08-01T06:46:56;8.20;;;7.40;;
15616;SDS011;7908;51.688;7.130;2022-08-01T06:49:33;9.65;;;7.90;;
15616;SDS011;7908;51.688;7.130;2022-08-01T06:52:11;8.95;;;8.00;;
15616;SDS011;7908;51.688;7.130;2022-08-01T06:54:42;13.27;;;8.52;;
15616;SDS011;7908;51.688;7.130;2022-08-01T06:57:11;8.07;;;6.95;;
15616;SDS011;7908;51.688;7.130;2022-08-01T06:59:40;8.65;;;7.75;;
15616;SDS011;7908;51.688;7.130;2022-08-01T07:02:26;9.52;;;7.53;;
15616;SDS011;7908;51.688;7.130;2022-08-01T07:04:58;8.18;;;7.28;;
15616;SDS011;7908;51.688;7.130;2022-08-01T07:07:30;8.40;;;7.38;;
15616;SDS011;7908;51.688;7.130;2022-08-01T07:10:03;7.40;;;6.70;;
15616;SDS011;7908;51.688;7.130;2022-08-01T07:12:33;9.32;;;7.15;;
15616;SDS011;7908;51.688;7.130;2022-08-01T07:15:05;8.15;;;6.55;;
15616;SDS011;7908;51.688;7.130;2022-08-01T07:17:38;8.32;;;6.57;;
15616;SDS011;7908;51.688;7.130;2022-08-01T07:20:10;7.07;;;5.80;;
15616;SDS011;7908;51.688;7.130;2022-08-01T07:22:48;6.50;;;5.90;;
15616;SDS011;7908;51.688;7.130;2022-08-01T07:25:24;6.07;;;5.53;;
15616;SDS011;7908;51.688;7.130;2022-08-01T07:27:58;5.07;;;4.57;;
15616;SDS011;7908;51.688;7.130;2022-08-01T07:30:29;5.93;;;4.18;;
15616;SDS011;7908;51.688;7.130;2022-08-01T07:33:01;4.97;;;3.90;;
15616;SDS011;7908;51.688;7.130;2022-08-01T07:35:33;13.77;;;4.80;;
15616;SDS011;7908;51.688;7.130;2022-08-01T07:38:08;3.63;;;3.30;;
15616;SDS011;7908;51.688;7.130;2022-08-01T07:40:38;3.40;;;3.10;;
15616;SDS011;7908;51.688;7.130;2022-08-01T07:43:08;2.47;;;2.28;;
15616;SDS011;7908;51.688;7.130;2022-08-01T07:45:41;3.75;;;2.40;;
15616;SDS011;7908;51.688;7.130;2022-08-01T07:48:12;2.30;;;2.10;;
15616;SDS011;7908;51.688;7.130;2022-08-01T07:50:45;2.40;;;2.15;;
15616;SDS011;7908;51.688;7.130;2022-08-01T07:53:20;2.50;;;1.80;;
15616;SDS011;7908;51.688;7.130;2022-08-01T07:55:53;2.70;;;2.10;;
15616;SDS011;7908;51.688;7.130;2022-08-01T07:58:25;2.10;;;1.73;;
15616;SDS011;7908;51.688;7.130;2022-08-01T08:00:57;1.80;;;1.48;;
15616;SDS011;7908;51.688;7.130;2022-08-01T08:03:29;2.53;;;1.80;;
15616;SDS011;7908;51.688;7.130;2022-08-01T08:06:06;2.05;;;1.85;;
15616;SDS011;7908;51.688;7.130;2022-08-01T08:08:37;2.00;;;1.80;;
15616;SDS011;7908;51.688;7.130;2022-08-01T08:11:08;3.58;;;2.00;;
15616;SDS011;7908;51.688;7.130;2022-08-01T08:13:38;2.95;;;2.20;;
15616;SDS011;7908;51.688;7.130;2022-08-01T08:16:08;2.33;;;1.90;;
15616;SDS011;7908;51.688;7.130;2022-08-01T08:18:37;2.45;;;1.90;;
15616;SDS011;7908;51.688;7.130;2022-08-01T08:21:09;4.20;;;1.88;;
15616;SDS011;7908;51.688;7.130;2022-08-01T08:23:41;3.30;;;2.25;;
15616;SDS011;7908;51.688;7.130;2022-08-01T08:26:38;2.97;;;1.70;;
15616;SDS011;7908;51.688;7.130;2022-08-01T08:29:08;1.63;;;1.48;;
15616;SDS011;7908;51.688;7.130;2022-08-01T08:31:38;1.50;;;1.40;;
15616;SDS011;7908;51.688;7.130;2022-08-01T08:34:18;2.35;;;1.70;;
15616;SDS011;7908;51.688;7.130;2022-08-01T08:36:50;1.80;;;1.70;;
15616;SDS011;7908;51.688;7.130;2022-08-01T08:39:22;2.28;;;2.08;;
15616;SDS011;7908;51.688;7.130;2022-08-01T08:41:55;2.88;;;2.13;;
15616;SDS011;7908;51.688;7.130;2022-08-01T08:44:25;3.00;;;1.90;;
15616;SDS011;7908;51.688;7.130;2022-08-01T08:46:55;2.25;;;1.90;;
15616;SDS011;7908;51.688;7.130;2022-08-01T08:49:31;2.13;;;1.60;;
15616;SDS011;7908;51.688;7.130;2022-08-01T08:52:09;1.80;;;1.70;;
15616;SDS011;7908;51.688;7.130;2022-08-01T08:54:49;2.70;;;1.83;;
15616;SDS011;7908;51.688;7.130;2022-08-01T08:57:22;1.80;;;1.58;;
15616;SDS011;7908;51.688;7.130;2022-08-01T08:59:56;3.60;;;1.60;;
15616;SDS011;7908;51.688;7.130;2022-08-01T09:02:31;1.63;;;1.30;;
15616;SDS011;7908;51.688;7.130;2022-08-01T09:05:04;1.40;;;1.30;;
15616;SDS011;7908;51.688;7.130;2022-08-01T09:07:35;1.40;;;1.20;;
15616;SDS011;7908;51.688;7.130;2022-08-01T09:10:07;1.48;;;1.38;;
15616;SDS011;7908;51.688;7.130;2022-08-01T09:13:00;3.22;;;1.45;;
15616;SDS011;7908;51.688;7.130;2022-08-01T09:15:37;1.17;;;1.08;;
15616;SDS011;7908;51.688;7.130;2022-08-01T09:18:08;1.63;;;1.50;;
15616;SDS011;7908;51.688;7.130;2022-08-01T09:21:07;2.25;;;1.70;;
15616;SDS011;7908;51.688;7.130;2022-08-01T09:23:41;2.55;;;1.70;;
15616;SDS011;7908;51.688;7.130;2022-08-01T09:26:28;2.47;;;1.13;;
15616;SDS011;7908;51.688;7.130;2022-08-01T09:29:04;0.80;;;0.60;;
15616;SDS011;7908;51.688;7.130;2022-08-01T09:31:55;0.90;;;0.60;;
15616;SDS011;7908;51.688;7.130;2022-08-01T09:34:28;1.25;;;0.55;;
15616;SDS011;7908;51.688;7.130;2022-08-01T09:37:13;0.40;;;0.32;;
15616;SDS011;7908;51.688;7.130;2022-08-01T09:40:03;0.40;;;0.40;;
15616;SDS011;7908;51.688;7.130;2022-08-01T09:42:37;0.77;;;0.50;;
15616;SDS011;7908;51.688;7.130;2022-08-01T09:45:31;0.40;;;0.30;;
15616;SDS011;7908;51.688;7.130;2022-08-01T09:48:11;0.40;;;0.40;;
15616;SDS011;7908;51.688;7.130;2022-08-01T09:50:54;0.50;;;0.40;;
15616;SDS011;7908;51.688;7.130;2022-08-01T09:53:48;1.00;;;0.50;;
15616;SDS011;7908;51.688;7.130;2022-08-01T09:56:20;0.80;;;0.80;;
15616;SDS011;7908;51.688;7.130;2022-08-01T09:58:52;4.47;;;4.07;;
15616;SDS011;7908;51.688;7.130;2022-08-01T10:01:28;10.80;;;8.73;;
15616;SDS011;7908;51.688;7.130;2022-08-01T10:04:10;8.25;;;7.40;;
15616;SDS011;7908;51.688;7.130;2022-08-01T10:06:45;16.92;;;13.85;;
15616;SDS011;7908;51.688;7.130;2022-08-01T10:09:29;15.27;;;12.98;;
15616;SDS011;7908;51.688;7.130;2022-08-01T10:12:10;7.78;;;6.95;;
15616;SDS011;7908;51.688;7.130;2022-08-01T10:14:46;7.97;;;6.65;;
15616;SDS011;7908;51.688;7.130;2022-08-01T10:17:24;12.52;;;11.25;;
15616;SDS011;7908;51.688;7.130;2022-08-01T10:20:14;5.35;;;4.85;;
15616;SDS011;7908;51.688;7.130;2022-08-01T10:22:58;10.45;;;9.20;;
15616;SDS011;7908;51.688;7.130;2022-08-01T10:25:34;16.48;;;12.50;;
15616;SDS011;7908;51.688;7.130;2022-08-01T10:28:16;93.18;;;63.88;;
15616;SDS011;7908;51.688;7.130;2022-08-01T10:30:56;2.22;;;2.00;;
15616;SDS011;7908;51.688;7.130;2022-08-01T10:33:30;11.95;;;8.30;;
15616;SDS011;7908;51.688;7.130;2022-08-01T10:36:19;52.30;;;42.88;;
15616;SDS011;7908;51.688;7.130;2022-08-01T10:38:51;9.80;;;8.77;;
15616;SDS011;7908;51.688;7.130;2022-08-01T10:41:30;29.20;;;26.13;;
15616;SDS011;7908;51.688;7.130;2022-08-01T10:44:09;60.22;;;38.53;;
15616;SDS011;7908;51.688;7.130;2022-08-01T10:46:42;7.80;;;7.00;;
15616;SDS011;7908;51.688;7.130;2022-08-01T10:49:23;14.38;;;12.88;;
15616;SDS011;7908;51.688;7.130;2022-08-01T10:52:03;18.17;;;12.77;;
15616;SDS011;7908;51.688;7.130;2022-08-01T10:54:38;30.88;;;23.77;;
15616;SDS011;7908;51.688;7.130;2022-08-01T10:57:18;1.98;;;1.80;;
15616;SDS011;7908;51.688;7.130;2022-08-01T11:00:00;1.25;;;1.10;;
15616;SDS011;7908;51.688;7.130;2022-08-01T11:02:35;31.60;;;28.25;;
15616;SDS011;7908;51.688;7.130;2022-08-01T11:05:36;1.67;;;1.38;;
15616;SDS011;7908;51.688;7.130;2022-08-01T11:08:10;0.50;;;0.50;;
15616;SDS011;7908;51.688;7.130;2022-08-01T11:10:59;2.25;;;2.10;;
15616;SDS011;7908;51.688;7.130;2022-08-01T11:16:38;0.80;;;0.80;;
15616;SDS011;7908;51.688;7.130;2022-08-01T11:19:10;1.75;;;0.80;;
15616;SDS011;7908;51.688;7.130;2022-08-01T11:22:00;1.83;;;0.95;;
15616;SDS011;7908;51.688;7.130;2022-08-01T11:24:54;1.30;;;0.77;;
15616;SDS011;7908;51.688;7.130;2022-08-01T11:27:30;0.93;;;0.73;;
15616;SDS011;7908;51.688;7.130;2022-08-01T11:33:05;0.98;;;0.73;;
15616;SDS011;7908;51.688;7.130;2022-08-01T11:36:16;1.35;;;1.10;;
15616;SDS011;7908;51.688;7.130;2022-08-01T11:39:13;2.13;;;1.60;;
15616;SDS011;7908;51.688;7.130;2022-08-01T11:41:51;0.60;;;0.50;;
15616;SDS011;7908;51.688;7.130;2022-08-01T11:44:24;1.77;;;1.58;;
15616;SDS011;7908;51.688;7.130;2022-08-01T11:47:00;1.40;;;0.73;;
15616;SDS011;7908;51.688;7.130;2022-08-01T11:52:30;1.70;;;1.52;;
15616;SDS011;7908;51.688;7.130;2022-08-01T11:55:08;0.90;;;0.80;;
15616;SDS011;7908;51.688;7.130;2022-08-01T11:57:45;1.17;;;0.80;;
15616;SDS011;7908;51.688;7.130;2022-08-01T12:00:18;2.13;;;1.83;;
15616;SDS011;7908;51.688;7.130;2022-08-01T12:02:57;0.70;;;0.70;;
15616;SDS011;7908;51.688;7.130;2022-08-01T12:05:34;1.75;;;0.70;;
15616;SDS011;7908;51.688;7.130;2022-08-01T12:08:10;0.85;;;0.57;;
15616;SDS011;7908;51.688;7.130;2022-08-01T12:10:40;2.72;;;1.00;;
15616;SDS011;7908;51.688;7.130;2022-08-01T12:13:28;1.08;;;0.60;;
15616;SDS011;7908;51.688;7.130;2022-08-01T12:16:11;1.92;;;0.60;;
15616;SDS011;7908;51.688;7.130;2022-08-01T12:18:51;0.50;;;0.50;;
15616;SDS011;7908;51.688;7.130;2022-08-01T12:21:24;0.80;;;0.47;;
15616;SDS011;7908;51.688;7.130;2022-08-01T12:24:04;1.48;;;0.68;;
15616;SDS011;7908;51.688;7.130;2022-08-01T12:26:40;0.60;;;0.60;;
15616;SDS011;7908;51.688;7.130;2022-08-01T12:32:01;1.15;;;0.70;;
15616;SDS011;7908;51.688;7.130;2022-08-01T12:34:35;1.00;;;0.82;;
15616;SDS011;7908;51.688;7.130;2022-08-01T12:37:07;0.65;;;0.60;;
15616;SDS011;7908;51.688;7.130;2022-08-01T12:39:38;0.82;;;0.75;;
15616;SDS011;7908;51.688;7.130;2022-08-01T12:42:10;1.42;;;0.70;;
15616;SDS011;7908;51.688;7.130;2022-08-01T12:44:45;1.40;;;1.00;;
15616;SDS011;7908;51.688;7.130;2022-08-01T12:47:25;1.70;;;0.80;;
15616;SDS011;7908;51.688;7.130;2022-08-01T12:50:06;0.60;;;0.60;;
15616;SDS011;7908;51.688;7.130;2022-08-01T12:52:46;6.75;;;5.57;;
15616;SDS011;7908;51.688;7.130;2022-08-01T12:55:18;1.92;;;1.20;;
15616;SDS011;7908;51.688;7.130;2022-08-01T12:58:03;2.83;;;0.95;;
15616;SDS011;7908;51.688;7.130;2022-08-01T13:00:45;1.60;;;0.85;;
15616;SDS011;7908;51.688;7.130;2022-08-01T13:03:21;1.15;;;1.02;;
15616;SDS011;7908;51.688;7.130;2022-08-01T13:05:55;2.03;;;1.02;;
15616;SDS011;7908;51.688;7.130;2022-08-01T13:08:33;1.77;;;1.00;;
15616;SDS011;7908;51.688;7.130;2022-08-01T13:11:07;1.20;;;0.80;;
15616;SDS011;7908;51.688;7.130;2022-08-01T13:13:44;2.47;;;1.77;;
15616;SDS011;7908;51.688;7.130;2022-08-01T13:16:17;1.00;;;0.70;;
15616;SDS011;7908;51.688;7.130;2022-08-01T13:18:59;1.83;;;0.80;;
15616;SDS011;7908;51.688;7.130;2022-08-01T13:21:34;2.03;;;0.80;;
15616;SDS011;7908;51.688;7.130;2022-08-01T13:24:24;1.00;;;0.90;;
15616;SDS011;7908;51.688;7.130;2022-08-01T13:26:57;1.60;;;1.20;;
15616;SDS011;7908;51.688;7.130;2022-08-01T13:29:31;1.35;;;0.82;;
15616;SDS011;7908;51.688;7.130;2022-08-01T13:32:14;2.13;;;0.90;;
15616;SDS011;7908;51.688;7.130;2022-08-01T13:35:05;2.53;;;1.00;;
15616;SDS011;7908;51.688;7.130;2022-08-01T13:37:39;1.40;;;0.80;;
15616;SDS011;7908;51.688;7.130;2022-08-01T13:40:10;1.88;;;1.10;;
15616;SDS011;7908;51.688;7.130;2022-08-01T13:42:49;1.52;;;1.10;;
15616;SDS011;7908;51.688;7.130;2022-08-01T13:45:21;1.42;;;0.98;;
15616;SDS011;7908;51.688;7.130;2022-08-01T13:47:58;3.53;;;2.33;;
15616;SDS011;7908;51.688;7.130;2022-08-01T13:50:38;16.10;;;12.82;;
15616;SDS011;7908;51.688;7.130;2022-08-01T13:53:36;4.03;;;1.45;;
15616;SDS011;7908;51.688;7.130;2022-08-01T13:56:07;2.28;;;1.10;;
15616;SDS011;7908;51.688;7.130;2022-08-01T13:58:46;1.73;;;1.15;;
15616;SDS011;7908;51.688;7.130;2022-08-01T14:01:17;3.38;;;2.03;;
15616;SDS011;7908;51.688;7.130;2022-08-01T14:03:48;2.63;;;1.10;;
15616;SDS011;7908;51.688;7.130;2022-08-01T14:06:28;4.90;;;2.10;;
15616;SDS011;7908;51.688;7.130;2022-08-01T14:09:00;2.47;;;1.55;;
15616;SDS011;7908;51.688;7.130;2022-08-01T14:11:44;3.80;;;1.40;;
15616;SDS011;7908;51.688;7.130;2022-08-01T14:14:21;2.30;;;1.38;;
15616;SDS011;7908;51.688;7.130;2022-08-01T14:16:52;3.97;;;1.83;;
15616;SDS011;7908;51.688;7.130;2022-08-01T14:19:22;3.55;;;2.05;;
15616;SDS011;7908;51.688;7.130;2022-08-01T14:22:05;3.00;;;1.50;;
15616;SDS011;7908;51.688;7.130;2022-08-01T14:24:41;2.45;;;1.30;;
15616;SDS011;7908;51.688;7.130;2022-08-01T14:27:11;2.30;;;1.25;;
15616;SDS011;7908;51.688;7.130;2022-08-01T14:29:45;2.15;;;1.52;;
15616;SDS011;7908;51.688;7.130;2022-08-01T14:32:28;2.53;;;1.42;;
15616;SDS011;7908;51.688;7.130;2022-08-01T14:35:05;3.33;;;1.58;;
15616;SDS011;7908;51.688;7.130;2022-08-01T14:37:36;3.33;;;2.70;;
15616;SDS011;7908;51.688;7.130;2022-08-01T14:40:13;3.65;;;1.67;;
15616;SDS011;7908;51.688;7.130;2022-08-01T14:42:48;5.60;;;2.50;;
15616;SDS011;7908;51.688;7.130;2022-08-01T14:45:49;3.63;;;1.70;;
15616;SDS011;7908;51.688;7.130;2022-08-01T14:48:21;1.98;;;1.10;;
15616;SDS011;7908;51.688;7.130;2022-08-01T14:50:56;2.67;;;1.17;;
15616;SDS011;7908;51.688;7.130;2022-08-01T14:53:31;4.30;;;1.70;;
15616;SDS011;7908;51.688;7.130;2022-08-01T14:56:08;2.67;;;1.65;;
15616;SDS011;7908;51.688;7.130;2022-08-01T14:58:38;4.18;;;2.00;;
15616;SDS011;7908;51.688;7.130;2022-08-01T15:01:16;4.05;;;2.10;;
15616;SDS011;7908;51.688;7.130;2022-08-01T15:03:49;4.07;;;1.40;;
15616;SDS011;7908;51.688;7.130;2022-08-01T15:06:24;3.75;;;1.77;;
15616;SDS011;7908;51.688;7.130;2022-08-01T15:09:03;3.45;;;1.60;;
15616;SDS011;7908;51.688;7.130;2022-08-01T15:11:38;3.70;;;1.50;;
15616;SDS011;7908;51.688;7.130;2022-08-01T15:14:07;3.28;;;1.42;;
15616;SDS011;7908;51.688;7.130;2022-08-01T15:16:58;5.38;;;1.27;;
15616;SDS011;7908;51.688;7.130;2022-08-01T15:19:34;4.55;;;1.60;;
15616;SDS011;7908;51.688;7.130;2022-08-01T15:22:11;2.45;;;1.30;;
15616;SDS011;7908;51.688;7.130;2022-08-01T15:24:44;3.70;;;1.55;;
15616;SDS011;7908;51.688;7.130;2022-08-01T15:27:22;4.03;;;1.80;;
15616;SDS011;7908;51.688;7.130;2022-08-01T15:29:53;3.42;;;1.45;;
15616;SDS011;7908;51.688;7.130;2022-08-01T15:32:28;4.55;;;1.58;;
15616;SDS011;7908;51.688;7.130;2022-08-01T15:34:57;1.52;;;1.42;;
15616;SDS011;7908;51.688;7.130;2022-08-01T15:37:27;2.45;;;1.15;;
15616;SDS011;7908;51.688;7.130;2022-08-01T15:40:08;3.80;;;1.70;;
15616;SDS011;7908;51.688;7.130;2022-08-01T15:42:40;4.30;;;1.50;;
15616;SDS011;7908;51.688;7.130;2022-08-01T15:45:13;3.42;;;1.63;;
15616;SDS011;7908;51.688;7.130;2022-08-01T15:48:06;2.70;;;1.25;;
15616;SDS011;7908;51.688;7.130;2022-08-01T15:50:47;3.20;;;1.38;;
15616;SDS011;7908;51.688;7.130;2022-08-01T15:53:22;3.65;;;1.30;;